sensor_id;sensor_type;location;lat;lon;timestamp;pressure;altitude;pressure_sealevel;temperature;humidity
40850;BME280;26571;41.610;25.380;2023-03-19T00:01:26;98772.28;;;9.11;nan
40850;BME280;26571;41.610;25.380;2023-03-19T00:03:52;98782.72;;;9.21;nan
40850;BME280;26571;41.610;25.380;2023-03-19T00:06:17;98780.97;;;9.29;nan
40850;BME280;26571;41.610;25.380;2023-03-19T00:08:43;98780.59;;;9.24;nan
40850;BME280;26571;41.610;25.380;2023-03-19T00:11:10;98773.09;;;9.12;nan
40850;BME280;26571;41.610;25.380;2023-03-19T00:13:36;98787.44;;;9.17;nan
40850;BME280;26571;41.610;25.380;2023-03-19T00:16:02;98760.41;;;9.07;nan
40850;BME280;26571;41.610;25.380;2023-03-19T00:18:28;98781.19;;;9.18;nan
40850;BME280;26571;41.610;25.380;2023-03-19T00:20:54;98782.19;;;9.17;nan
40850;BME280;26571;41.610;25.380;2023-03-19T00:23:20;98751.53;;;9.08;nan
40850;BME280;26571;41.610;25.380;2023-03-19T00:25:45;98770.41;;;9.21;nan
40850;BME280;26571;41.610;25.380;2023-03-19T00:28:11;98778.56;;;9.18;nan
40850;BME280;26571;41.610;25.380;2023-03-19T00:30:36;98765.88;;;9.14;nan
40850;BME280;26571;41.610;25.380;2023-03-19T00:33:01;98763.13;;;9.15;nan
40850;BME280;26571;41.610;25.380;2023-03-19T00:35:27;98767.00;;;9.11;nan
40850;BME280;26571;41.610;25.380;2023-03-19T00:37:52;98760.13;;;9.10;nan
40850;BME280;26571;41.610;25.380;2023-03-19T00:40:19;98761.88;;;9.10;nan
40850;BME280;26571;41.610;25.380;2023-03-19T00:42:44;98764.66;;;9.08;nan
40850;BME280;26571;41.610;25.380;2023-03-19T00:45:11;98768.44;;;9.05;nan
40850;BME280;26571;41.610;25.380;2023-03-19T00:47:37;98732.25;;;8.82;nan
40850;BME280;26571;41.610;25.380;2023-03-19T00:50:03;98768.50;;;8.96;nan
40850;BME280;26571;41.610;25.380;2023-03-19T00:52:28;98764.28;;;9.03;nan
40850;BME280;26571;41.610;25.380;2023-03-19T00:54:54;98756.31;;;8.95;nan
40850;BME280;26571;41.610;25.380;2023-03-19T00:57:20;98758.44;;;8.91;nan
40850;BME280;26571;41.610;25.380;2023-03-19T00:59:45;98769.38;;;8.87;nan
40850;BME280;26571;41.610;25.380;2023-03-19T01:02:11;98755.09;;;8.71;nan
40850;BME280;26571;41.610;25.380;2023-03-19T01:04:36;98773.41;;;8.81;nan
40850;BME280;26571;41.610;25.380;2023-03-19T01:07:02;98721.16;;;8.60;nan
40850;BME280;26571;41.610;25.380;2023-03-19T01:09:27;98766.91;;;8.85;nan
40850;BME280;26571;41.610;25.380;2023-03-19T01:11:53;98767.41;;;8.89;nan
40850;BME280;26571;41.610;25.380;2023-03-19T01:14:18;98766.16;;;8.93;nan
40850;BME280;26571;41.610;25.380;2023-03-19T01:16:44;98770.16;;;8.97;nan
40850;BME280;26571;41.610;25.380;2023-03-19T01:19:09;98773.44;;;8.99;nan
40850;BME280;26571;41.610;25.380;2023-03-19T01:21:36;98768.72;;;9.02;nan
40850;BME280;26571;41.610;25.380;2023-03-19T01:24:02;98783.06;;;9.08;nan
40850;BME280;26571;41.610;25.380;2023-03-19T01:26:27;98777.19;;;9.14;nan
40850;BME280;26571;41.610;25.380;2023-03-19T01:28:53;98781.50;;;9.15;nan
40850;BME280;26571;41.610;25.380;2023-03-19T01:31:18;98775.41;;;9.15;nan
40850;BME280;26571;41.610;25.380;2023-03-19T01:33:44;98773.97;;;9.02;nan
40850;BME280;26571;41.610;25.380;2023-03-19T01:36:09;98757.78;;;8.79;nan
40850;BME280;26571;41.610;25.380;2023-03-19T01:38:35;98776.75;;;9.01;nan
40850;BME280;26571;41.610;25.380;2023-03-19T01:41:01;98775.25;;;8.98;nan
40850;BME280;26571;41.610;25.380;2023-03-19T01:43:28;98776.00;;;8.91;nan
40850;BME280;26571;41.610;25.380;2023-03-19T01:45:58;98777.53;;;8.84;nan
40850;BME280;26571;41.610;25.380;2023-03-19T01:51:29;98774.63;;;8.87;nan
40850;BME280;26571;41.610;25.380;2023-03-19T01:54:02;98770.44;;;8.94;nan
40850;BME280;26571;41.610;25.380;2023-03-19T01:56:33;98754.78;;;8.74;nan
40850;BME280;26571;41.610;25.380;2023-03-19T01:59:13;98776.00;;;8.91;nan
40850;BME280;26571;41.610;25.380;2023-03-19T02:01:48;98777.31;;;8.77;nan
40850;BME280;26571;41.610;25.380;2023-03-19T02:04:15;98764.28;;;8.58;nan
40850;BME280;26571;41.610;25.380;2023-03-19T02:06:42;98777.13;;;8.61;nan
40850;BME280;26571;41.610;25.380;2023-03-19T02:09:08;98788.03;;;8.56;nan
40850;BME280;26571;41.610;25.380;2023-03-19T02:11:35;98785.59;;;8.45;nan
40850;BME280;26571;41.610;25.380;2023-03-19T02:14:00;98771.78;;;8.43;nan
40850;BME280;26571;41.610;25.380;2023-03-19T02:16:26;98784.88;;;8.52;nan
40850;BME280;26571;41.610;25.380;2023-03-19T02:18:51;98789.38;;;8.60;nan
40850;BME280;26571;41.610;25.380;2023-03-19T02:21:19;98791.09;;;8.51;nan
40850;BME280;26571;41.610;25.380;2023-03-19T02:23:52;98787.06;;;8.57;nan
40850;BME280;26571;41.610;25.380;2023-03-19T02:26:21;98793.28;;;8.56;nan
40850;BME280;26571;41.610;25.380;2023-03-19T02:28:49;98789.69;;;8.57;nan
40850;BME280;26571;41.610;25.380;2023-03-19T02:31:15;98791.06;;;8.61;nan
40850;BME280;26571;41.610;25.380;2023-03-19T02:33:42;98794.63;;;8.60;nan
40850;BME280;26571;41.610;25.380;2023-03-19T02:36:13;98790.47;;;8.67;nan
40850;BME280;26571;41.610;25.380;2023-03-19T02:38:41;98795.84;;;8.75;nan
40850;BME280;26571;41.610;25.380;2023-03-19T02:41:08;98793.72;;;8.79;nan
40850;BME280;26571;41.610;25.380;2023-03-19T02:43:36;98795.09;;;8.83;nan
40850;BME280;26571;41.610;25.380;2023-03-19T02:46:04;98794.94;;;8.85;nan
40850;BME280;26571;41.610;25.380;2023-03-19T02:48:30;98786.78;;;8.88;nan
40850;BME280;26571;41.610;25.380;2023-03-19T02:50:56;98802.25;;;8.91;nan
40850;BME280;26571;41.610;25.380;2023-03-19T02:53:22;98797.00;;;8.91;nan
40850;BME280;26571;41.610;25.380;2023-03-19T02:55:47;98797.66;;;8.93;nan
40850;BME280;26571;41.610;25.380;2023-03-19T02:58:13;98800.28;;;8.93;nan
40850;BME280;26571;41.610;25.380;2023-03-19T03:00:38;98804.44;;;8.95;nan
40850;BME280;26571;41.610;25.380;2023-03-19T03:03:05;98797.38;;;8.96;nan
40850;BME280;26571;41.610;25.380;2023-03-19T03:05:32;98812.94;;;9.07;nan
40850;BME280;26571;41.610;25.380;2023-03-19T03:07:58;98814.47;;;9.00;nan
40850;BME280;26571;41.610;25.380;2023-03-19T03:10:24;98818.47;;;9.04;nan
40850;BME280;26571;41.610;25.380;2023-03-19T03:12:49;98814.03;;;9.04;nan
40850;BME280;26571;41.610;25.380;2023-03-19T03:15:15;98823.44;;;9.07;nan
40850;BME280;26571;41.610;25.380;2023-03-19T03:17:42;98819.16;;;9.06;nan
40850;BME280;26571;41.610;25.380;2023-03-19T03:20:09;98828.41;;;9.10;nan
40850;BME280;26571;41.610;25.380;2023-03-19T03:22:36;98832.50;;;9.13;nan
40850;BME280;26571;41.610;25.380;2023-03-19T03:25:02;98834.16;;;9.14;nan
40850;BME280;26571;41.610;25.380;2023-03-19T03:27:28;98829.22;;;9.11;nan
40850;BME280;26571;41.610;25.380;2023-03-19T03:29:53;98839.41;;;9.14;nan
40850;BME280;26571;41.610;25.380;2023-03-19T03:32:19;98835.31;;;9.11;nan
40850;BME280;26571;41.610;25.380;2023-03-19T03:34:45;98839.56;;;9.12;nan
40850;BME280;26571;41.610;25.380;2023-03-19T03:37:10;98840.25;;;9.14;nan
40850;BME280;26571;41.610;25.380;2023-03-19T03:39:36;98825.78;;;9.10;nan
40850;BME280;26571;41.610;25.380;2023-03-19T03:42:02;98837.78;;;9.13;nan
40850;BME280;26571;41.610;25.380;2023-03-19T03:44:27;98835.97;;;9.13;nan
40850;BME280;26571;41.610;25.380;2023-03-19T03:46:53;98825.66;;;9.02;nan
40850;BME280;26571;41.610;25.380;2023-03-19T03:49:18;98846.31;;;9.15;nan
40850;BME280;26571;41.610;25.380;2023-03-19T03:51:44;98842.47;;;9.09;nan
40850;BME280;26571;41.610;25.380;2023-03-19T03:54:09;98846.09;;;9.08;nan
40850;BME280;26571;41.610;25.380;2023-03-19T03:56:35;98845.03;;;9.01;nan
40850;BME280;26571;41.610;25.380;2023-03-19T03:59:01;98859.66;;;9.03;nan
40850;BME280;26571;41.610;25.380;2023-03-19T04:01:27;98853.56;;;9.03;nan
40850;BME280;26571;41.610;25.380;2023-03-19T04:03:53;98850.41;;;8.99;nan
40850;BME280;26571;41.610;25.380;2023-03-19T04:06:19;98848.13;;;8.87;nan
40850;BME280;26571;41.610;25.380;2023-03-19T04:08:46;98857.19;;;9.02;nan
40850;BME280;26571;41.610;25.380;2023-03-19T04:11:12;98855.53;;;9.01;nan
40850;BME280;26571;41.610;25.380;2023-03-19T04:13:37;98862.72;;;8.99;nan
40850;BME280;26571;41.610;25.380;2023-03-19T04:16:07;98859.84;;;8.92;nan
40850;BME280;26571;41.610;25.380;2023-03-19T04:18:34;98866.56;;;8.77;nan
40850;BME280;26571;41.610;25.380;2023-03-19T04:21:01;98850.41;;;8.72;nan
40850;BME280;26571;41.610;25.380;2023-03-19T04:23:26;98842.44;;;8.54;nan
40850;BME280;26571;41.610;25.380;2023-03-19T04:25:54;98838.19;;;8.53;nan
40850;BME280;26571;41.610;25.380;2023-03-19T04:28:22;98852.34;;;8.70;nan
40850;BME280;26571;41.610;25.380;2023-03-19T04:30:47;98843.78;;;8.68;nan
40850;BME280;26571;41.610;25.380;2023-03-19T04:33:13;98836.88;;;8.67;nan
40850;BME280;26571;41.610;25.380;2023-03-19T04:35:38;98848.03;;;8.78;nan
40850;BME280;26571;41.610;25.380;2023-03-19T04:38:03;98850.38;;;8.82;nan
40850;BME280;26571;41.610;25.380;2023-03-19T04:40:29;98845.78;;;8.84;nan
40850;BME280;26571;41.610;25.380;2023-03-19T04:42:54;98846.50;;;8.86;nan
40850;BME280;26571;41.610;25.380;2023-03-19T04:45:20;98856.56;;;8.90;nan
40850;BME280;26571;41.610;25.380;2023-03-19T04:47:45;98860.41;;;8.96;nan
40850;BME280;26571;41.610;25.380;2023-03-19T04:50:11;98864.56;;;8.89;nan
40850;BME280;26571;41.610;25.380;2023-03-19T04:52:38;98871.91;;;8.85;nan
40850;BME280;26571;41.610;25.380;2023-03-19T04:55:05;98877.22;;;8.75;nan
40850;BME280;26571;41.610;25.380;2023-03-19T04:57:30;98871.41;;;8.72;nan
40850;BME280;26571;41.610;25.380;2023-03-19T04:59:56;98871.84;;;8.67;nan
40850;BME280;26571;41.610;25.380;2023-03-19T05:02:22;98871.72;;;8.49;nan
40850;BME280;26571;41.610;25.380;2023-03-19T05:04:47;98881.81;;;8.54;nan
40850;BME280;26571;41.610;25.380;2023-03-19T05:07:12;98881.28;;;8.50;nan
40850;BME280;26571;41.610;25.380;2023-03-19T05:09:38;98879.50;;;8.51;nan
40850;BME280;26571;41.610;25.380;2023-03-19T05:12:04;98873.13;;;8.44;nan
40850;BME280;26571;41.610;25.380;2023-03-19T05:14:31;98892.16;;;8.65;nan
40850;BME280;26571;41.610;25.380;2023-03-19T05:16:56;98859.44;;;8.50;nan
40850;BME280;26571;41.610;25.380;2023-03-19T05:19:22;98893.75;;;8.86;nan
40850;BME280;26571;41.610;25.380;2023-03-19T05:21:47;98897.19;;;9.14;nan
40850;BME280;26571;41.610;25.380;2023-03-19T05:24:13;98896.47;;;9.21;nan
40850;BME280;26571;41.610;25.380;2023-03-19T05:26:40;98893.00;;;9.30;nan
40850;BME280;26571;41.610;25.380;2023-03-19T05:29:05;98907.56;;;9.43;nan
40850;BME280;26571;41.610;25.380;2023-03-19T05:31:34;98866.41;;;9.33;nan
40850;BME280;26571;41.610;25.380;2023-03-19T05:34:00;98911.00;;;9.71;nan
40850;BME280;26571;41.610;25.380;2023-03-19T05:36:25;98903.41;;;9.86;nan
40850;BME280;26571;41.610;25.380;2023-03-19T05:38:50;98910.09;;;9.98;nan
40850;BME280;26571;41.610;25.380;2023-03-19T05:41:16;98902.94;;;10.08;nan
40850;BME280;26571;41.610;25.380;2023-03-19T05:43:42;98895.06;;;10.08;nan
40850;BME280;26571;41.610;25.380;2023-03-19T05:46:07;98903.03;;;10.16;nan
40850;BME280;26571;41.610;25.380;2023-03-19T05:48:33;98908.38;;;10.24;nan
40850;BME280;26571;41.610;25.380;2023-03-19T05:50:58;98839.56;;;9.75;nan
40850;BME280;26571;41.610;25.380;2023-03-19T05:53:24;98883.31;;;10.20;nan
40850;BME280;26571;41.610;25.380;2023-03-19T05:55:49;98906.00;;;10.39;nan
40850;BME280;26571;41.610;25.380;2023-03-19T05:58:15;98869.59;;;10.26;nan
40850;BME280;26571;41.610;25.380;2023-03-19T06:00:41;98895.09;;;10.52;nan
40850;BME280;26571;41.610;25.380;2023-03-19T06:03:06;98892.00;;;10.56;nan
40850;BME280;26571;41.610;25.380;2023-03-19T06:05:32;98895.25;;;10.76;nan
40850;BME280;26571;41.610;25.380;2023-03-19T06:07:58;98848.84;;;10.83;nan
40850;BME280;26571;41.610;25.380;2023-03-19T06:10:23;98901.66;;;11.50;nan
40850;BME280;26571;41.610;25.380;2023-03-19T06:12:49;98887.09;;;12.05;nan
40850;BME280;26571;41.610;25.380;2023-03-19T06:15:14;98903.53;;;12.72;nan
40850;BME280;26571;41.610;25.380;2023-03-19T06:17:40;98899.44;;;13.17;nan
40850;BME280;26571;41.610;25.380;2023-03-19T06:20:05;98897.78;;;14.32;nan
40850;BME280;26571;41.610;25.380;2023-03-19T06:22:31;98890.44;;;16.25;nan
40850;BME280;26571;41.610;25.380;2023-03-19T06:24:56;98900.00;;;18.13;nan
40850;BME280;26571;41.610;25.380;2023-03-19T06:27:22;98911.09;;;18.69;nan
40850;BME280;26571;41.610;25.380;2023-03-19T06:29:47;98899.03;;;19.38;nan
40850;BME280;26571;41.610;25.380;2023-03-19T06:32:12;98905.97;;;19.97;nan
40850;BME280;26571;41.610;25.380;2023-03-19T06:34:38;98861.50;;;20.78;nan
40850;BME280;26571;41.610;25.380;2023-03-19T06:37:03;98909.16;;;22.75;nan
40850;BME280;26571;41.610;25.380;2023-03-19T06:39:29;98909.63;;;24.16;nan
40850;BME280;26571;41.610;25.380;2023-03-19T06:41:54;98903.47;;;25.43;nan
40850;BME280;26571;41.610;25.380;2023-03-19T06:44:20;98920.84;;;25.31;nan
40850;BME280;26571;41.610;25.380;2023-03-19T06:46:45;98902.19;;;24.68;nan
40850;BME280;26571;41.610;25.380;2023-03-19T06:49:11;98921.72;;;24.81;nan
40850;BME280;26571;41.610;25.380;2023-03-19T06:51:36;98891.69;;;24.89;nan
40850;BME280;26571;41.610;25.380;2023-03-19T06:54:02;98919.19;;;23.78;nan
40850;BME280;26571;41.610;25.380;2023-03-19T06:56:28;98918.91;;;22.34;nan
40850;BME280;26571;41.610;25.380;2023-03-19T06:58:54;98901.00;;;21.74;nan
40850;BME280;26571;41.610;25.380;2023-03-19T07:01:19;98919.69;;;22.23;nan
40850;BME280;26571;41.610;25.380;2023-03-19T07:03:45;98916.66;;;21.89;nan
40850;BME280;26571;41.610;25.380;2023-03-19T07:06:11;98818.06;;;20.39;nan
40850;BME280;26571;41.610;25.380;2023-03-19T07:08:36;98912.03;;;21.48;nan
40850;BME280;26571;41.610;25.380;2023-03-19T07:11:06;98909.84;;;21.75;nan
40850;BME280;26571;41.610;25.380;2023-03-19T07:13:32;98910.69;;;22.17;nan
40850;BME280;26571;41.610;25.380;2023-03-19T07:15:58;98907.97;;;22.47;nan
40850;BME280;26571;41.610;25.380;2023-03-19T07:18:24;98876.47;;;21.89;nan
40850;BME280;26571;41.610;25.380;2023-03-19T07:20:50;98903.88;;;21.73;nan
40850;BME280;26571;41.610;25.380;2023-03-19T07:23:17;98903.00;;;21.79;nan
40850;BME280;26571;41.610;25.380;2023-03-19T07:25:43;98864.22;;;21.33;nan
40850;BME280;26571;41.610;25.380;2023-03-19T07:28:08;98869.53;;;20.78;nan
40850;BME280;26571;41.610;25.380;2023-03-19T07:30:33;98901.59;;;20.34;nan
40850;BME280;26571;41.610;25.380;2023-03-19T07:33:00;98903.75;;;19.94;nan
40850;BME280;26571;41.610;25.380;2023-03-19T07:35:25;98891.84;;;19.90;nan
40850;BME280;26571;41.610;25.380;2023-03-19T07:37:51;98895.13;;;19.41;nan
40850;BME280;26571;41.610;25.380;2023-03-19T07:40:16;98905.28;;;19.12;nan
40850;BME280;26571;41.610;25.380;2023-03-19T07:42:42;98898.53;;;19.09;nan
40850;BME280;26571;41.610;25.380;2023-03-19T07:45:08;98884.63;;;18.61;nan
40850;BME280;26571;41.610;25.380;2023-03-19T07:47:33;98890.09;;;17.80;nan
40850;BME280;26571;41.610;25.380;2023-03-19T07:49:59;98898.13;;;17.39;nan
40850;BME280;26571;41.610;25.380;2023-03-19T07:52:25;98884.25;;;17.50;nan
40850;BME280;26571;41.610;25.380;2023-03-19T07:54:51;98882.88;;;17.61;nan
40850;BME280;26571;41.610;25.380;2023-03-19T07:57:16;98876.75;;;17.67;nan
40850;BME280;26571;41.610;25.380;2023-03-19T07:59:43;98874.00;;;18.21;nan
40850;BME280;26571;41.610;25.380;2023-03-19T08:02:12;98872.75;;;18.50;nan
40850;BME280;26571;41.610;25.380;2023-03-19T08:04:38;98873.28;;;18.99;nan
40850;BME280;26571;41.610;25.380;2023-03-19T08:07:04;98862.44;;;19.00;nan
40850;BME280;26571;41.610;25.380;2023-03-19T08:09:30;98837.88;;;18.72;nan
40850;BME280;26571;41.610;25.380;2023-03-19T08:11:56;98842.16;;;18.79;nan
40850;BME280;26571;41.610;25.380;2023-03-19T08:14:21;98867.19;;;18.85;nan
40850;BME280;26571;41.610;25.380;2023-03-19T08:16:50;98855.28;;;18.68;nan
40850;BME280;26571;41.610;25.380;2023-03-19T08:19:15;98868.84;;;18.86;nan
40850;BME280;26571;41.610;25.380;2023-03-19T08:21:41;98844.06;;;18.32;nan
40850;BME280;26571;41.610;25.380;2023-03-19T08:24:07;98865.34;;;17.99;nan
40850;BME280;26571;41.610;25.380;2023-03-19T08:26:33;98876.22;;;18.18;nan
40850;BME280;26571;41.610;25.380;2023-03-19T08:28:59;98879.13;;;18.36;nan
40850;BME280;26571;41.610;25.380;2023-03-19T08:31:24;98862.69;;;18.39;nan
40850;BME280;26571;41.610;25.380;2023-03-19T08:33:50;98859.81;;;18.74;nan
40850;BME280;26571;41.610;25.380;2023-03-19T08:36:15;98858.56;;;18.83;nan
40850;BME280;26571;41.610;25.380;2023-03-19T08:38:41;98861.03;;;18.65;nan
40850;BME280;26571;41.610;25.380;2023-03-19T08:41:07;98850.34;;;18.65;nan
40850;BME280;26571;41.610;25.380;2023-03-19T08:43:34;98831.97;;;18.17;nan
40850;BME280;26571;41.610;25.380;2023-03-19T08:46:01;98847.53;;;18.20;nan
40850;BME280;26571;41.610;25.380;2023-03-19T08:48:27;98839.28;;;18.54;nan
40850;BME280;26571;41.610;25.380;2023-03-19T08:51:02;98847.94;;;17.90;nan
40850;BME280;26571;41.610;25.380;2023-03-19T08:53:28;98847.91;;;17.77;nan
40850;BME280;26571;41.610;25.380;2023-03-19T08:55:56;98849.09;;;17.68;nan
40850;BME280;26571;41.610;25.380;2023-03-19T08:58:22;98849.34;;;17.73;nan
40850;BME280;26571;41.610;25.380;2023-03-19T09:00:48;98829.53;;;17.34;nan
40850;BME280;26571;41.610;25.380;2023-03-19T09:03:15;98844.38;;;17.70;nan
40850;BME280;26571;41.610;25.380;2023-03-19T09:05:41;98849.38;;;18.32;nan
40850;BME280;26571;41.610;25.380;2023-03-19T09:08:07;98845.50;;;18.35;nan
40850;BME280;26571;41.610;25.380;2023-03-19T09:10:33;98829.47;;;17.82;nan
40850;BME280;26571;41.610;25.380;2023-03-19T09:12:58;98828.28;;;17.91;nan
40850;BME280;26571;41.610;25.380;2023-03-19T09:15:24;98836.06;;;18.26;nan
40850;BME280;26571;41.610;25.380;2023-03-19T09:17:49;98827.63;;;18.75;nan
40850;BME280;26571;41.610;25.380;2023-03-19T09:20:15;98836.00;;;18.79;nan
40850;BME280;26571;41.610;25.380;2023-03-19T09:22:41;98829.06;;;18.71;nan
40850;BME280;26571;41.610;25.380;2023-03-19T09:25:07;98836.44;;;18.29;nan
40850;BME280;26571;41.610;25.380;2023-03-19T09:27:32;98825.34;;;18.66;nan
40850;BME280;26571;41.610;25.380;2023-03-19T09:29:58;98829.06;;;19.23;nan
40850;BME280;26571;41.610;25.380;2023-03-19T09:32:23;98817.75;;;18.69;nan
40850;BME280;26571;41.610;25.380;2023-03-19T09:34:49;98798.75;;;17.86;nan
40850;BME280;26571;41.610;25.380;2023-03-19T09:37:15;98828.19;;;17.65;nan
40850;BME280;26571;41.610;25.380;2023-03-19T09:39:40;98806.06;;;17.57;nan
40850;BME280;26571;41.610;25.380;2023-03-19T09:42:18;98819.16;;;17.59;nan
40850;BME280;26571;41.610;25.380;2023-03-19T09:44:51;98824.63;;;17.31;nan
40850;BME280;26571;41.610;25.380;2023-03-19T09:47:32;98814.09;;;17.03;nan
40850;BME280;26571;41.610;25.380;2023-03-19T09:50:00;98822.19;;;16.88;nan
40850;BME280;26571;41.610;25.380;2023-03-19T09:52:41;98810.84;;;17.14;nan
40850;BME280;26571;41.610;25.380;2023-03-19T09:57:50;98811.41;;;16.62;nan
40850;BME280;26571;41.610;25.380;2023-03-19T10:00:31;98814.00;;;16.90;nan
40850;BME280;26571;41.610;25.380;2023-03-19T10:06:26;98797.50;;;17.01;nan
40850;BME280;26571;41.610;25.380;2023-03-19T10:09:12;98795.69;;;17.15;nan
40850;BME280;26571;41.610;25.380;2023-03-19T10:12:53;98794.84;;;17.01;nan
40850;BME280;26571;41.610;25.380;2023-03-19T10:15:14;98792.00;;;17.02;nan
40850;BME280;26571;41.610;25.380;2023-03-19T10:18:00;98787.94;;;17.13;nan
40850;BME280;26571;41.610;25.380;2023-03-19T10:21:06;98784.13;;;16.81;nan
40850;BME280;26571;41.610;25.380;2023-03-19T10:23:45;98784.03;;;16.68;nan
40850;BME280;26571;41.610;25.380;2023-03-19T10:26:15;98781.53;;;16.60;nan
40850;BME280;26571;41.610;25.380;2023-03-19T10:28:42;98761.25;;;16.52;nan
40850;BME280;26571;41.610;25.380;2023-03-19T10:31:27;98770.53;;;16.69;nan
40850;BME280;26571;41.610;25.380;2023-03-19T10:34:32;98770.28;;;16.58;nan
40850;BME280;26571;41.610;25.380;2023-03-19T10:39:37;98768.44;;;16.58;nan
40850;BME280;26571;41.610;25.380;2023-03-19T10:42:09;98763.47;;;16.76;nan
40850;BME280;26571;41.610;25.380;2023-03-19T10:47:42;98760.25;;;16.60;nan
40850;BME280;26571;41.610;25.380;2023-03-19T10:50:17;98748.56;;;16.54;nan
40850;BME280;26571;41.610;25.380;2023-03-19T10:52:44;98737.47;;;16.72;nan
40850;BME280;26571;41.610;25.380;2023-03-19T10:55:16;98739.94;;;16.80;nan
40850;BME280;26571;41.610;25.380;2023-03-19T10:57:44;98744.03;;;16.83;nan
40850;BME280;26571;41.610;25.380;2023-03-19T11:00:22;98719.69;;;16.44;nan
40850;BME280;26571;41.610;25.380;2023-03-19T11:02:53;98735.34;;;16.67;nan
40850;BME280;26571;41.610;25.380;2023-03-19T11:05:27;98729.34;;;16.87;nan
40850;BME280;26571;41.610;25.380;2023-03-19T11:08:04;98715.81;;;16.82;nan
40850;BME280;26571;41.610;25.380;2023-03-19T11:10:32;98727.72;;;16.92;nan
40850;BME280;26571;41.610;25.380;2023-03-19T11:13:03;98711.75;;;16.92;nan
40850;BME280;26571;41.610;25.380;2023-03-19T11:15:35;98720.75;;;16.91;nan
40850;BME280;26571;41.610;25.380;2023-03-19T11:18:18;98710.41;;;16.68;nan
40850;BME280;26571;41.610;25.380;2023-03-19T11:20:49;98712.16;;;16.89;nan
40850;BME280;26571;41.610;25.380;2023-03-19T11:23:19;98708.91;;;17.00;nan
40850;BME280;26571;41.610;25.380;2023-03-19T11:25:49;98713.59;;;16.92;nan
40850;BME280;26571;41.610;25.380;2023-03-19T11:28:18;98707.03;;;16.94;nan
40850;BME280;26571;41.610;25.380;2023-03-19T11:31:18;98715.22;;;16.86;nan
40850;BME280;26571;41.610;25.380;2023-03-19T11:39:55;98701.88;;;16.73;nan
40850;BME280;26571;41.610;25.380;2023-03-19T11:59:00;98676.75;;;16.82;nan
40850;BME280;26571;41.610;25.380;2023-03-19T12:10:27;98656.13;;;17.04;nan
40850;BME280;26571;41.610;25.380;2023-03-19T12:13:18;98632.41;;;17.22;nan
40850;BME280;26571;41.610;25.380;2023-03-19T12:23:35;98636.50;;;17.38;nan
40850;BME280;26571;41.610;25.380;2023-03-19T12:26:07;98641.22;;;17.49;nan
40850;BME280;26571;41.610;25.380;2023-03-19T12:28:36;98641.81;;;17.65;nan
40850;BME280;26571;41.610;25.380;2023-03-19T12:36:25;98632.44;;;17.42;nan
40850;BME280;26571;41.610;25.380;2023-03-19T12:39:01;98634.25;;;17.48;nan
40850;BME280;26571;41.610;25.380;2023-03-19T12:41:29;98629.97;;;17.34;nan
40850;BME280;26571;41.610;25.380;2023-03-19T12:44:17;98623.41;;;17.30;nan
40850;BME280;26571;41.610;25.380;2023-03-19T12:46:55;98637.13;;;17.14;nan
40850;BME280;26571;41.610;25.380;2023-03-19T12:49:27;98624.22;;;16.97;nan
40850;BME280;26571;41.610;25.380;2023-03-19T12:54:47;98623.78;;;17.00;nan
40850;BME280;26571;41.610;25.380;2023-03-19T12:57:30;98610.50;;;17.20;nan
40850;BME280;26571;41.610;25.380;2023-03-19T13:00:04;98607.88;;;17.27;nan
40850;BME280;26571;41.610;25.380;2023-03-19T13:02:39;98597.22;;;17.14;nan
40850;BME280;26571;41.610;25.380;2023-03-19T13:05:16;98605.00;;;17.22;nan
40850;BME280;26571;41.610;25.380;2023-03-19T13:10:29;98602.94;;;17.24;nan
40850;BME280;26571;41.610;25.380;2023-03-19T13:12:55;98576.94;;;16.99;nan
40850;BME280;26571;41.610;25.380;2023-03-19T13:15:35;98607.44;;;17.03;nan
40850;BME280;26571;41.610;25.380;2023-03-19T13:18:12;98599.03;;;17.00;nan
40850;BME280;26571;41.610;25.380;2023-03-19T13:21:08;98602.53;;;17.07;nan
40850;BME280;26571;41.610;25.380;2023-03-19T13:23:37;98604.78;;;16.97;nan
40850;BME280;26571;41.610;25.380;2023-03-19T13:26:08;98595.78;;;16.91;nan
40850;BME280;26571;41.610;25.380;2023-03-19T13:28:37;98612.34;;;16.93;nan
40850;BME280;26571;41.610;25.380;2023-03-19T13:31:20;98604.16;;;16.88;nan
40850;BME280;26571;41.610;25.380;2023-03-19T13:33:52;98605.78;;;16.89;nan
40850;BME280;26571;41.610;25.380;2023-03-19T13:36:26;98596.16;;;16.88;nan
40850;BME280;26571;41.610;25.380;2023-03-19T13:38:52;98567.31;;;16.85;nan
40850;BME280;26571;41.610;25.380;2023-03-19T13:43:58;98592.31;;;17.17;nan
40850;BME280;26571;41.610;25.380;2023-03-19T13:46:50;98592.28;;;17.24;nan
40850;BME280;26571;41.610;25.380;2023-03-19T13:49:27;98570.22;;;16.97;nan
40850;BME280;26571;41.610;25.380;2023-03-19T13:51:57;98585.75;;;16.93;nan
40850;BME280;26571;41.610;25.380;2023-03-19T13:54:33;98596.34;;;16.80;nan
40850;BME280;26571;41.610;25.380;2023-03-19T13:59:27;98574.25;;;16.79;nan
40850;BME280;26571;41.610;25.380;2023-03-19T14:01:54;98580.81;;;16.90;nan
40850;BME280;26571;41.610;25.380;2023-03-19T14:06:51;98577.13;;;16.71;nan
40850;BME280;26571;41.610;25.380;2023-03-19T14:17:14;98584.84;;;16.60;nan
40850;BME280;26571;41.610;25.380;2023-03-19T14:19:41;98550.41;;;16.25;nan
40850;BME280;26571;41.610;25.380;2023-03-19T14:22:09;98574.19;;;16.46;nan
40850;BME280;26571;41.610;25.380;2023-03-19T14:24:55;98577.03;;;16.38;nan
40850;BME280;26571;41.610;25.380;2023-03-19T14:29:52;98587.28;;;16.54;nan
40850;BME280;26571;41.610;25.380;2023-03-19T14:32:24;98581.75;;;16.49;nan
40850;BME280;26571;41.610;25.380;2023-03-19T14:34:55;98567.22;;;16.45;nan
40850;BME280;26571;41.610;25.380;2023-03-19T14:40:02;98581.97;;;16.54;nan
40850;BME280;26571;41.610;25.380;2023-03-19T14:42:38;98588.09;;;16.48;nan
40850;BME280;26571;41.610;25.380;2023-03-19T14:53:14;98561.06;;;16.38;nan
40850;BME280;26571;41.610;25.380;2023-03-19T14:55:48;98572.75;;;16.50;nan